メインページ
METAR-TAF:

METAR-TAF

空港 :

鹿屋航空基地

鹿屋, 日本

緯度: 31-22N, 経度: 130-50E, 海抜: 65m

現時点の気象観測

当レポートは2時間55分前の06:20(UTC)に作成
西/北西の風 15kt、最大25ktの突風を伴う
気温 11°C
湿度 50%
気圧 1025 hPa
視程10km以上
高度3000ftの雲はほとんどない
高度5000ftの雲は散在している
高度23000ftの千切れ雲あり

METAR: RJFY 130620Z 29015G25KT 9999 FEW030 SCT050 BKN230 11/01 Q1025 RMK 1CU030 3SC050 A3028

時間: 18:15 (09:15 UTC)


TAF: 見つかりません

4,000以上の空港の気象観測と天気予報(METAR報とTAF報)

利用可能な観測所は地図上に黄色い丸と赤い丸で示す。

丸の上にカーソルを重ねると観測所名を参照できる。

次にクリックすると気象観測と天気予報を参照できる。

マップの切り替え:黒色「×」印の緑ボタンをクリックして拡大、「-」印の緑ボタンをクリックして縮小、緑色の三角印をクリックして隣りの地図に切り替え


METAR-TAF: